sensor_id;sensor_type;location;lat;lon;timestamp;temperature;humidity
66096;SHT31;53861;53.422;14.530;2023-07-29T00:01:12;14.88;96.25
66096;SHT31;53861;53.422;14.530;2023-07-29T00:03:39;14.80;96.39
66096;SHT31;53861;53.422;14.530;2023-07-29T00:06:07;14.80;96.73
66096;SHT31;53861;53.422;14.530;2023-07-29T00:08:34;14.79;96.99
66096;SHT31;53861;53.422;14.530;2023-07-29T00:11:01;14.77;96.81
66096;SHT31;53861;53.422;14.530;2023-07-29T00:13:28;14.80;96.09
66096;SHT31;53861;53.422;14.530;2023-07-29T00:16:00;14.76;96.09
66096;SHT31;53861;53.422;14.530;2023-07-29T00:18:28;14.64;95.95
66096;SHT31;53861;53.422;14.530;2023-07-29T00:20:56;14.64;96.56
66096;SHT31;53861;53.422;14.530;2023-07-29T00:23:24;14.64;96.50
66096;SHT31;53861;53.422;14.530;2023-07-29T00:25:54;14.70;96.65
66096;SHT31;53861;53.422;14.530;2023-07-29T00:28:21;14.66;96.42
66096;SHT31;53861;53.422;14.530;2023-07-29T00:30:48;14.66;97.00
66096;SHT31;53861;53.422;14.530;2023-07-29T00:33:17;14.67;97.00
66096;SHT31;53861;53.422;14.530;2023-07-29T00:35:45;14.67;96.62
66096;SHT31;53861;53.422;14.530;2023-07-29T00:38:12;14.69;96.62
66096;SHT31;53861;53.422;14.530;2023-07-29T00:40:40;14.67;96.49
66096;SHT31;53861;53.422;14.530;2023-07-29T00:43:07;14.64;96.60
66096;SHT31;53861;53.422;14.530;2023-07-29T00:45:34;14.66;96.74
66096;SHT31;53861;53.422;14.530;2023-07-29T00:48:02;14.60;96.02
66096;SHT31;53861;53.422;14.530;2023-07-29T00:50:32;14.59;96.59
66096;SHT31;53861;53.422;14.530;2023-07-29T00:52:59;14.55;96.36
66096;SHT31;53861;53.422;14.530;2023-07-29T00:55:26;14.55;96.88
66096;SHT31;53861;53.422;14.530;2023-07-29T00:57:54;14.44;96.62
66096;SHT31;53861;53.422;14.530;2023-07-29T01:00:21;14.46;96.76
66096;SHT31;53861;53.422;14.530;2023-07-29T01:02:50;14.47;97.01
66096;SHT31;53861;53.422;14.530;2023-07-29T01:05:18;14.43;97.01
66096;SHT31;53861;53.422;14.530;2023-07-29T01:07:49;14.46;97.22
66096;SHT31;53861;53.422;14.530;2023-07-29T01:10:19;14.44;97.22
66096;SHT31;53861;53.422;14.530;2023-07-29T01:12:51;14.51;97.26
66096;SHT31;53861;53.422;14.530;2023-07-29T01:15:22;14.43;96.80
66096;SHT31;53861;53.422;14.530;2023-07-29T01:17:52;14.30;97.39
66096;SHT31;53861;53.422;14.530;2023-07-29T01:20:20;14.37;97.09
66096;SHT31;53861;53.422;14.530;2023-07-29T01:22:50;14.36;97.17
66096;SHT31;53861;53.422;14.530;2023-07-29T01:25:18;14.39;97.25
66096;SHT31;53861;53.422;14.530;2023-07-29T01:27:47;14.43;97.31
66096;SHT31;53861;53.422;14.530;2023-07-29T01:30:14;14.40;96.94
66096;SHT31;53861;53.422;14.530;2023-07-29T01:32:43;14.40;97.21
66096;SHT31;53861;53.422;14.530;2023-07-29T01:35:15;14.44;97.09
66096;SHT31;53861;53.422;14.530;2023-07-29T01:37:44;14.39;96.98
66096;SHT31;53861;53.422;14.530;2023-07-29T01:40:16;14.46;97.47
66096;SHT31;53861;53.422;14.530;2023-07-29T01:42:49;14.46;96.98
66096;SHT31;53861;53.422;14.530;2023-07-29T01:45:16;14.50;96.96
66096;SHT31;53861;53.422;14.530;2023-07-29T01:47:43;14.47;96.68
66096;SHT31;53861;53.422;14.530;2023-07-29T01:50:11;14.44;96.88
66096;SHT31;53861;53.422;14.530;2023-07-29T01:52:38;14.39;96.73
66096;SHT31;53861;53.422;14.530;2023-07-29T01:55:06;14.43;97.10
66096;SHT31;53861;53.422;14.530;2023-07-29T01:57:33;14.43;97.16
66096;SHT31;53861;53.422;14.530;2023-07-29T02:00:02;14.41;97.28
66096;SHT31;53861;53.422;14.530;2023-07-29T02:02:29;14.34;97.19
66096;SHT31;53861;53.422;14.530;2023-07-29T02:04:56;14.33;96.92
66096;SHT31;53861;53.422;14.530;2023-07-29T02:07:24;14.40;97.26
66096;SHT31;53861;53.422;14.530;2023-07-29T02:09:52;14.29;96.98
66096;SHT31;53861;53.422;14.530;2023-07-29T02:12:19;14.26;97.15
66096;SHT31;53861;53.422;14.530;2023-07-29T02:14:47;14.23;97.24
66096;SHT31;53861;53.422;14.530;2023-07-29T02:17:16;14.15;97.10
66096;SHT31;53861;53.422;14.530;2023-07-29T02:19:44;14.12;97.38
66096;SHT31;53861;53.422;14.530;2023-07-29T02:22:12;14.08;97.07
66096;SHT31;53861;53.422;14.530;2023-07-29T02:24:40;14.13;97.69
66096;SHT31;53861;53.422;14.530;2023-07-29T02:27:07;14.25;97.77
66096;SHT31;53861;53.422;14.530;2023-07-29T02:29:34;14.30;97.83
66096;SHT31;53861;53.422;14.530;2023-07-29T02:32:01;14.32;97.42
66096;SHT31;53861;53.422;14.530;2023-07-29T02:34:29;14.36;97.47
66096;SHT31;53861;53.422;14.530;2023-07-29T02:36:57;14.34;97.41
66096;SHT31;53861;53.422;14.530;2023-07-29T02:39:23;14.41;97.43
66096;SHT31;53861;53.422;14.530;2023-07-29T02:41:51;14.29;96.55
66096;SHT31;53861;53.422;14.530;2023-07-29T02:44:18;14.29;97.56
66096;SHT31;53861;53.422;14.530;2023-07-29T02:46:46;14.26;97.35
66096;SHT31;53861;53.422;14.530;2023-07-29T02:49:13;14.28;97.28
66096;SHT31;53861;53.422;14.530;2023-07-29T02:51:42;14.33;97.48
66096;SHT31;53861;53.422;14.530;2023-07-29T02:54:09;14.34;97.53
66096;SHT31;53861;53.422;14.530;2023-07-29T02:56:36;14.30;97.28
66096;SHT31;53861;53.422;14.530;2023-07-29T02:59:03;14.30;97.36
66096;SHT31;53861;53.422;14.530;2023-07-29T03:01:30;14.37;97.57
66096;SHT31;53861;53.422;14.530;2023-07-29T03:03:57;14.39;97.52
66096;SHT31;53861;53.422;14.530;2023-07-29T03:06:24;14.39;97.37
66096;SHT31;53861;53.422;14.530;2023-07-29T03:08:53;14.57;98.24
66096;SHT31;53861;53.422;14.530;2023-07-29T03:11:20;14.61;97.76
66096;SHT31;53861;53.422;14.530;2023-07-29T03:13:47;14.66;97.58
66096;SHT31;53861;53.422;14.530;2023-07-29T03:16:15;14.74;97.65
66096;SHT31;53861;53.422;14.530;2023-07-29T03:18:43;14.70;97.16
66096;SHT31;53861;53.422;14.530;2023-07-29T03:21:11;14.60;97.06
66096;SHT31;53861;53.422;14.530;2023-07-29T03:23:38;14.56;97.23
66096;SHT31;53861;53.422;14.530;2023-07-29T03:26:06;14.57;97.36
66096;SHT31;53861;53.422;14.530;2023-07-29T03:28:37;14.57;97.43
66096;SHT31;53861;53.422;14.530;2023-07-29T03:31:04;14.61;97.47
66096;SHT31;53861;53.422;14.530;2023-07-29T03:33:31;14.69;97.78
66096;SHT31;53861;53.422;14.530;2023-07-29T03:35:58;14.81;98.38
66096;SHT31;53861;53.422;14.530;2023-07-29T03:38:25;15.02;98.61
66096;SHT31;53861;53.422;14.530;2023-07-29T03:40:53;15.10;98.31
66096;SHT31;53861;53.422;14.530;2023-07-29T03:43:21;15.21;98.28
66096;SHT31;53861;53.422;14.530;2023-07-29T03:45:48;15.30;98.00
66096;SHT31;53861;53.422;14.530;2023-07-29T03:48:16;15.38;97.94
66096;SHT31;53861;53.422;14.530;2023-07-29T03:50:43;15.48;97.90
66096;SHT31;53861;53.422;14.530;2023-07-29T03:53:10;15.51;97.67
66096;SHT31;53861;53.422;14.530;2023-07-29T03:55:37;15.62;97.97
66096;SHT31;53861;53.422;14.530;2023-07-29T03:58:05;15.51;97.11
66096;SHT31;53861;53.422;14.530;2023-07-29T04:00:33;15.59;97.67
66096;SHT31;53861;53.422;14.530;2023-07-29T04:03:00;15.69;97.92
66096;SHT31;53861;53.422;14.530;2023-07-29T04:05:28;15.81;97.73
66096;SHT31;53861;53.422;14.530;2023-07-29T04:07:55;15.85;97.45
66096;SHT31;53861;53.422;14.530;2023-07-29T04:10:22;15.96;97.42
66096;SHT31;53861;53.422;14.530;2023-07-29T04:12:49;16.02;97.66
66096;SHT31;53861;53.422;14.530;2023-07-29T04:15:17;16.13;97.63
66096;SHT31;53861;53.422;14.530;2023-07-29T04:17:45;16.13;97.48
66096;SHT31;53861;53.422;14.530;2023-07-29T04:20:12;16.21;97.55
66096;SHT31;53861;53.422;14.530;2023-07-29T04:22:40;16.26;97.24
66096;SHT31;53861;53.422;14.530;2023-07-29T04:25:07;16.30;97.30
66096;SHT31;53861;53.422;14.530;2023-07-29T04:27:34;16.36;97.21
66096;SHT31;53861;53.422;14.530;2023-07-29T04:30:01;16.48;96.86
66096;SHT31;53861;53.422;14.530;2023-07-29T04:32:30;16.41;96.95
66096;SHT31;53861;53.422;14.530;2023-07-29T04:34:58;16.46;96.89
66096;SHT31;53861;53.422;14.530;2023-07-29T04:37:28;16.53;96.76
66096;SHT31;53861;53.422;14.530;2023-07-29T04:39:55;16.47;97.27
66096;SHT31;53861;53.422;14.530;2023-07-29T04:42:23;16.56;97.42
66096;SHT31;53861;53.422;14.530;2023-07-29T04:44:50;16.63;97.29
66096;SHT31;53861;53.422;14.530;2023-07-29T04:47:20;16.72;96.73
66096;SHT31;53861;53.422;14.530;2023-07-29T04:49:47;16.79;96.54
66096;SHT31;53861;53.422;14.530;2023-07-29T04:52:16;16.79;96.32
66096;SHT31;53861;53.422;14.530;2023-07-29T04:54:45;16.78;96.92
66096;SHT31;53861;53.422;14.530;2023-07-29T04:57:12;16.81;96.85
66096;SHT31;53861;53.422;14.530;2023-07-29T04:59:39;16.88;96.69
66096;SHT31;53861;53.422;14.530;2023-07-29T05:02:07;16.77;96.93
66096;SHT31;53861;53.422;14.530;2023-07-29T05:04:34;16.78;97.26
66096;SHT31;53861;53.422;14.530;2023-07-29T05:07:01;16.81;97.36
66096;SHT31;53861;53.422;14.530;2023-07-29T05:09:30;16.82;97.26
66096;SHT31;53861;53.422;14.530;2023-07-29T05:12:00;16.85;97.29
66096;SHT31;53861;53.422;14.530;2023-07-29T05:14:27;16.89;96.99
66096;SHT31;53861;53.422;14.530;2023-07-29T05:16:54;17.05;97.21
66096;SHT31;53861;53.422;14.530;2023-07-29T05:19:22;17.11;96.93
66096;SHT31;53861;53.422;14.530;2023-07-29T05:21:49;17.16;96.51
66096;SHT31;53861;53.422;14.530;2023-07-29T05:24:16;17.32;96.24
66096;SHT31;53861;53.422;14.530;2023-07-29T05:26:45;17.30;95.39
66096;SHT31;53861;53.422;14.530;2023-07-29T05:29:12;17.38;95.97
66096;SHT31;53861;53.422;14.530;2023-07-29T05:31:39;17.50;95.54
66096;SHT31;53861;53.422;14.530;2023-07-29T05:34:07;17.60;95.81
66096;SHT31;53861;53.422;14.530;2023-07-29T05:36:34;17.79;94.81
66096;SHT31;53861;53.422;14.530;2023-07-29T05:39:02;17.84;94.91
66096;SHT31;53861;53.422;14.530;2023-07-29T05:41:29;17.79;95.53
66096;SHT31;53861;53.422;14.530;2023-07-29T05:43:58;17.90;94.70
66096;SHT31;53861;53.422;14.530;2023-07-29T05:46:25;17.69;95.31
66096;SHT31;53861;53.422;14.530;2023-07-29T05:48:52;17.81;95.07
66096;SHT31;53861;53.422;14.530;2023-07-29T05:51:19;17.80;95.10
66096;SHT31;53861;53.422;14.530;2023-07-29T05:53:46;17.74;95.40
66096;SHT31;53861;53.422;14.530;2023-07-29T05:56:14;17.87;95.48
66096;SHT31;53861;53.422;14.530;2023-07-29T05:58:41;17.87;95.12
66096;SHT31;53861;53.422;14.530;2023-07-29T06:01:10;17.86;95.02
66096;SHT31;53861;53.422;14.530;2023-07-29T06:03:37;17.87;94.99
66096;SHT31;53861;53.422;14.530;2023-07-29T06:06:06;17.93;94.72
66096;SHT31;53861;53.422;14.530;2023-07-29T06:08:33;17.84;94.74
66096;SHT31;53861;53.422;14.530;2023-07-29T06:11:01;17.84;94.70
66096;SHT31;53861;53.422;14.530;2023-07-29T06:13:28;17.79;94.91
66096;SHT31;53861;53.422;14.530;2023-07-29T06:15:55;17.73;95.31
66096;SHT31;53861;53.422;14.530;2023-07-29T06:18:24;17.73;95.50
66096;SHT31;53861;53.422;14.530;2023-07-29T06:20:51;17.77;95.59
66096;SHT31;53861;53.422;14.530;2023-07-29T06:23:18;17.84;95.45
66096;SHT31;53861;53.422;14.530;2023-07-29T06:25:45;17.90;95.98
66096;SHT31;53861;53.422;14.530;2023-07-29T06:28:12;17.97;95.64
66096;SHT31;53861;53.422;14.530;2023-07-29T06:30:40;18.05;95.91
66096;SHT31;53861;53.422;14.530;2023-07-29T06:33:10;18.15;95.88
66096;SHT31;53861;53.422;14.530;2023-07-29T06:35:39;18.17;95.47
66096;SHT31;53861;53.422;14.530;2023-07-29T06:38:06;18.24;94.72
66096;SHT31;53861;53.422;14.530;2023-07-29T06:40:33;18.18;94.90
66096;SHT31;53861;53.422;14.530;2023-07-29T06:43:00;18.17;94.49
66096;SHT31;53861;53.422;14.530;2023-07-29T06:45:27;18.30;94.33
66096;SHT31;53861;53.422;14.530;2023-07-29T06:47:55;18.35;94.40
66096;SHT31;53861;53.422;14.530;2023-07-29T06:50:22;18.54;94.44
66096;SHT31;53861;53.422;14.530;2023-07-29T06:52:51;18.62;94.65
66096;SHT31;53861;53.422;14.530;2023-07-29T06:55:19;18.63;94.08
66096;SHT31;53861;53.422;14.530;2023-07-29T06:57:46;18.75;94.31
66096;SHT31;53861;53.422;14.530;2023-07-29T07:00:16;18.82;93.72
66096;SHT31;53861;53.422;14.530;2023-07-29T07:02:43;18.72;94.39
66096;SHT31;53861;53.422;14.530;2023-07-29T07:05:10;19.05;94.16
66096;SHT31;53861;53.422;14.530;2023-07-29T07:07:40;19.36;93.28
66096;SHT31;53861;53.422;14.530;2023-07-29T07:10:09;20.21;91.61
66096;SHT31;53861;53.422;14.530;2023-07-29T07:12:37;21.01;90.41
66096;SHT31;53861;53.422;14.530;2023-07-29T07:15:04;21.93;86.61
66096;SHT31;53861;53.422;14.530;2023-07-29T07:17:32;22.30;84.80
66096;SHT31;53861;53.422;14.530;2023-07-29T07:19:59;23.31;84.01
66096;SHT31;53861;53.422;14.530;2023-07-29T07:22:26;23.90;81.61
66096;SHT31;53861;53.422;14.530;2023-07-29T07:24:53;24.98;80.78
66096;SHT31;53861;53.422;14.530;2023-07-29T07:27:21;25.61;75.72
66096;SHT31;53861;53.422;14.530;2023-07-29T07:29:48;25.29;76.83
66096;SHT31;53861;53.422;14.530;2023-07-29T07:32:15;23.96;78.42
66096;SHT31;53861;53.422;14.530;2023-07-29T07:34:42;23.42;80.68
66096;SHT31;53861;53.422;14.530;2023-07-29T07:37:09;24.02;81.47
66096;SHT31;53861;53.422;14.530;2023-07-29T07:39:36;24.94;77.01
66096;SHT31;53861;53.422;14.530;2023-07-29T07:42:04;25.11;76.56
66096;SHT31;53861;53.422;14.530;2023-07-29T07:44:32;24.88;76.34
66096;SHT31;53861;53.422;14.530;2023-07-29T07:46:59;24.88;76.20
66096;SHT31;53861;53.422;14.530;2023-07-29T07:49:26;25.18;75.83
66096;SHT31;53861;53.422;14.530;2023-07-29T07:51:53;25.50;74.97
66096;SHT31;53861;53.422;14.530;2023-07-29T07:54:20;25.76;72.06
66096;SHT31;53861;53.422;14.530;2023-07-29T07:56:47;24.81;75.14
66096;SHT31;53861;53.422;14.530;2023-07-29T07:59:16;23.96;77.10
66096;SHT31;53861;53.422;14.530;2023-07-29T08:01:51;23.56;78.52
66096;SHT31;53861;53.422;14.530;2023-07-29T08:04:18;23.86;80.44
66096;SHT31;53861;53.422;14.530;2023-07-29T08:06:46;24.60;77.11
66096;SHT31;53861;53.422;14.530;2023-07-29T08:09:13;25.28;76.58
66096;SHT31;53861;53.422;14.530;2023-07-29T08:11:41;25.97;72.42
66096;SHT31;53861;53.422;14.530;2023-07-29T08:14:08;26.34;72.83
66096;SHT31;53861;53.422;14.530;2023-07-29T08:16:35;26.48;71.99
66096;SHT31;53861;53.422;14.530;2023-07-29T08:19:04;26.41;72.52
66096;SHT31;53861;53.422;14.530;2023-07-29T08:21:32;26.03;72.05
66096;SHT31;53861;53.422;14.530;2023-07-29T08:24:00;24.75;75.92
66096;SHT31;53861;53.422;14.530;2023-07-29T08:26:27;24.91;76.12
66096;SHT31;53861;53.422;14.530;2023-07-29T08:28:54;24.53;76.34
66096;SHT31;53861;53.422;14.530;2023-07-29T08:31:24;24.44;76.47
66096;SHT31;53861;53.422;14.530;2023-07-29T08:33:51;25.29;74.35
66096;SHT31;53861;53.422;14.530;2023-07-29T08:36:21;26.08;73.67
66096;SHT31;53861;53.422;14.530;2023-07-29T08:38:49;25.89;72.25
66096;SHT31;53861;53.422;14.530;2023-07-29T08:41:16;25.96;73.09
66096;SHT31;53861;53.422;14.530;2023-07-29T08:43:48;26.48;73.78
66096;SHT31;53861;53.422;14.530;2023-07-29T08:46:17;26.04;71.35
66096;SHT31;53861;53.422;14.530;2023-07-29T08:48:45;26.48;71.38
66096;SHT31;53861;53.422;14.530;2023-07-29T08:51:12;25.90;72.98
66096;SHT31;53861;53.422;14.530;2023-07-29T08:53:41;26.12;71.34
66096;SHT31;53861;53.422;14.530;2023-07-29T08:56:08;25.89;72.11
66096;SHT31;53861;53.422;14.530;2023-07-29T08:58:35;25.58;72.36
66096;SHT31;53861;53.422;14.530;2023-07-29T09:01:03;26.00;70.87
66096;SHT31;53861;53.422;14.530;2023-07-29T09:03:30;26.76;70.08
66096;SHT31;53861;53.422;14.530;2023-07-29T09:06:00;27.35;67.51
66096;SHT31;53861;53.422;14.530;2023-07-29T09:08:28;27.30;65.35
66096;SHT31;53861;53.422;14.530;2023-07-29T09:10:57;27.51;65.68
66096;SHT31;53861;53.422;14.530;2023-07-29T09:13:24;28.04;65.06
66096;SHT31;53861;53.422;14.530;2023-07-29T09:15:53;28.24;64.14
66096;SHT31;53861;53.422;14.530;2023-07-29T09:18:23;28.61;66.79
66096;SHT31;53861;53.422;14.530;2023-07-29T09:20:52;27.17;66.30
66096;SHT31;53861;53.422;14.530;2023-07-29T09:23:27;27.26;68.19
66096;SHT31;53861;53.422;14.530;2023-07-29T09:26:05;26.72;68.66
66096;SHT31;53861;53.422;14.530;2023-07-29T09:28:33;26.12;68.30
66096;SHT31;53861;53.422;14.530;2023-07-29T09:31:01;25.73;70.10
66096;SHT31;53861;53.422;14.530;2023-07-29T09:33:28;25.50;70.45
66096;SHT31;53861;53.422;14.530;2023-07-29T09:35:57;26.47;68.02
66096;SHT31;53861;53.422;14.530;2023-07-29T09:38:26;27.49;66.09
66096;SHT31;53861;53.422;14.530;2023-07-29T09:40:54;27.42;64.43
66096;SHT31;53861;53.422;14.530;2023-07-29T09:43:26;26.98;64.79
66096;SHT31;53861;53.422;14.530;2023-07-29T09:45:59;26.71;66.66
66096;SHT31;53861;53.422;14.530;2023-07-29T09:48:32;26.76;67.54
66096;SHT31;53861;53.422;14.530;2023-07-29T09:50:59;26.82;67.09
66096;SHT31;53861;53.422;14.530;2023-07-29T09:53:27;26.85;67.28
66096;SHT31;53861;53.422;14.530;2023-07-29T09:55:54;27.36;65.80
66096;SHT31;53861;53.422;14.530;2023-07-29T09:58:27;27.81;66.12
66096;SHT31;53861;53.422;14.530;2023-07-29T10:00:54;28.27;64.52
66096;SHT31;53861;53.422;14.530;2023-07-29T10:03:23;27.97;63.52
66096;SHT31;53861;53.422;14.530;2023-07-29T10:05:53;27.66;64.85
66096;SHT31;53861;53.422;14.530;2023-07-29T10:08:23;28.04;63.07
66096;SHT31;53861;53.422;14.530;2023-07-29T10:10:51;28.47;65.54
66096;SHT31;53861;53.422;14.530;2023-07-29T10:13:18;28.84;62.42
66096;SHT31;53861;53.422;14.530;2023-07-29T10:15:50;29.31;61.35
66096;SHT31;53861;53.422;14.530;2023-07-29T10:18:17;30.36;59.81
66096;SHT31;53861;53.422;14.530;2023-07-29T10:20:45;31.38;59.58
66096;SHT31;53861;53.422;14.530;2023-07-29T10:23:14;31.62;57.98
66096;SHT31;53861;53.422;14.530;2023-07-29T10:25:43;30.73;58.71
66096;SHT31;53861;53.422;14.530;2023-07-29T10:28:11;30.01;58.76
66096;SHT31;53861;53.422;14.530;2023-07-29T10:30:38;31.77;57.64
66096;SHT31;53861;53.422;14.530;2023-07-29T10:33:07;31.72;56.62
66096;SHT31;53861;53.422;14.530;2023-07-29T10:35:35;33.27;59.05
66096;SHT31;53861;53.422;14.530;2023-07-29T10:38:03;32.88;53.34
66096;SHT31;53861;53.422;14.530;2023-07-29T10:43:13;32.60;52.92
66096;SHT31;53861;53.422;14.530;2023-07-29T10:45:45;31.99;54.28
66096;SHT31;53861;53.422;14.530;2023-07-29T10:48:40;31.23;55.88
66096;SHT31;53861;53.422;14.530;2023-07-29T10:53:42;29.68;60.76
66096;SHT31;53861;53.422;14.530;2023-07-29T10:56:09;29.74;60.79
66096;SHT31;53861;53.422;14.530;2023-07-29T10:58:36;29.29;60.59
66096;SHT31;53861;53.422;14.530;2023-07-29T11:01:03;28.93;61.63
66096;SHT31;53861;53.422;14.530;2023-07-29T11:03:40;28.98;59.98
66096;SHT31;53861;53.422;14.530;2023-07-29T11:06:07;29.70;59.73
66096;SHT31;53861;53.422;14.530;2023-07-29T11:08:34;31.16;59.30
66096;SHT31;53861;53.422;14.530;2023-07-29T11:11:02;31.82;56.39
66096;SHT31;53861;53.422;14.530;2023-07-29T11:13:30;30.86;58.84
66096;SHT31;53861;53.422;14.530;2023-07-29T11:15:57;28.96;60.31
66096;SHT31;53861;53.422;14.530;2023-07-29T11:18:28;28.89;61.55
66096;SHT31;53861;53.422;14.530;2023-07-29T11:20:57;28.20;63.90
66096;SHT31;53861;53.422;14.530;2023-07-29T11:23:28;27.57;64.52
66096;SHT31;53861;53.422;14.530;2023-07-29T11:25:55;26.75;67.81
66096;SHT31;53861;53.422;14.530;2023-07-29T11:28:23;26.08;68.87
66096;SHT31;53861;53.422;14.530;2023-07-29T11:30:51;26.23;70.36
66096;SHT31;53861;53.422;14.530;2023-07-29T11:33:18;27.51;71.99
66096;SHT31;53861;53.422;14.530;2023-07-29T11:35:46;27.47;69.53
66096;SHT31;53861;53.422;14.530;2023-07-29T11:38:16;27.29;69.49
66096;SHT31;53861;53.422;14.530;2023-07-29T11:40:43;26.67;71.78
66096;SHT31;53861;53.422;14.530;2023-07-29T11:43:16;26.47;72.55
66096;SHT31;53861;53.422;14.530;2023-07-29T11:45:44;26.64;71.92
66096;SHT31;53861;53.422;14.530;2023-07-29T11:48:11;27.57;69.01
66096;SHT31;53861;53.422;14.530;2023-07-29T11:50:38;28.01;68.13
66096;SHT31;53861;53.422;14.530;2023-07-29T11:53:05;28.17;69.01
66096;SHT31;53861;53.422;14.530;2023-07-29T11:55:33;28.25;69.24
66096;SHT31;53861;53.422;14.530;2023-07-29T11:58:00;27.56;68.86
66096;SHT31;53861;53.422;14.530;2023-07-29T12:00:28;27.42;69.18
66096;SHT31;53861;53.422;14.530;2023-07-29T12:02:55;26.99;70.26
66096;SHT31;53861;53.422;14.530;2023-07-29T12:05:22;26.48;70.66
66096;SHT31;53861;53.422;14.530;2023-07-29T12:07:49;26.41;71.57
66096;SHT31;53861;53.422;14.530;2023-07-29T12:10:16;26.59;71.76
66096;SHT31;53861;53.422;14.530;2023-07-29T12:12:46;26.21;71.49
66096;SHT31;53861;53.422;14.530;2023-07-29T12:15:13;25.35;72.59
66096;SHT31;53861;53.422;14.530;2023-07-29T12:17:40;23.95;76.41
66096;SHT31;53861;53.422;14.530;2023-07-29T12:20:08;23.34;78.50
66096;SHT31;53861;53.422;14.530;2023-07-29T12:22:35;22.28;81.91
66096;SHT31;53861;53.422;14.530;2023-07-29T12:25:02;22.20;84.13
66096;SHT31;53861;53.422;14.530;2023-07-29T12:27:30;21.61;86.50
66096;SHT31;53861;53.422;14.530;2023-07-29T12:30:00;20.66;88.71
66096;SHT31;53861;53.422;14.530;2023-07-29T12:32:29;20.24;90.87
66096;SHT31;53861;53.422;14.530;2023-07-29T12:34:56;20.17;92.52
66096;SHT31;53861;53.422;14.530;2023-07-29T12:37:30;19.99;95.30
66096;SHT31;53861;53.422;14.530;2023-07-29T12:39:57;19.82;94.00
66096;SHT31;53861;53.422;14.530;2023-07-29T12:42:24;19.81;95.38
66096;SHT31;53861;53.422;14.530;2023-07-29T12:44:51;19.70;96.07
66096;SHT31;53861;53.422;14.530;2023-07-29T12:47:19;19.78;95.82
66096;SHT31;53861;53.422;14.530;2023-07-29T12:49:46;19.82;95.31
66096;SHT31;53861;53.422;14.530;2023-07-29T12:52:13;19.88;95.46
66096;SHT31;53861;53.422;14.530;2023-07-29T12:54:40;19.82;95.76
66096;SHT31;53861;53.422;14.530;2023-07-29T12:57:09;19.68;95.60
66096;SHT31;53861;53.422;14.530;2023-07-29T12:59:36;19.82;95.65
66096;SHT31;53861;53.422;14.530;2023-07-29T13:02:03;19.79;95.72
66096;SHT31;53861;53.422;14.530;2023-07-29T13:04:32;19.89;95.57
66096;SHT31;53861;53.422;14.530;2023-07-29T13:06:59;19.94;95.61
66096;SHT31;53861;53.422;14.530;2023-07-29T13:09:26;19.79;94.67
66096;SHT31;53861;53.422;14.530;2023-07-29T13:11:53;19.67;95.05
66096;SHT31;53861;53.422;14.530;2023-07-29T13:14:20;19.68;95.73
66096;SHT31;53861;53.422;14.530;2023-07-29T13:16:47;19.84;95.45
66096;SHT31;53861;53.422;14.530;2023-07-29T13:19:14;19.89;95.88
66096;SHT31;53861;53.422;14.530;2023-07-29T13:21:42;19.85;95.76
66096;SHT31;53861;53.422;14.530;2023-07-29T13:24:09;19.56;95.51
66096;SHT31;53861;53.422;14.530;2023-07-29T13:26:39;19.50;95.20
66096;SHT31;53861;53.422;14.530;2023-07-29T13:29:07;19.38;96.20
66096;SHT31;53861;53.422;14.530;2023-07-29T13:31:34;19.47;96.56
66096;SHT31;53861;53.422;14.530;2023-07-29T13:34:01;19.40;95.55
66096;SHT31;53861;53.422;14.530;2023-07-29T13:36:28;19.26;95.91
66096;SHT31;53861;53.422;14.530;2023-07-29T13:38:57;19.24;96.33
66096;SHT31;53861;53.422;14.530;2023-07-29T13:41:24;19.12;96.44
66096;SHT31;53861;53.422;14.530;2023-07-29T13:43:50;19.20;96.80
66096;SHT31;53861;53.422;14.530;2023-07-29T13:46:17;19.22;96.89
66096;SHT31;53861;53.422;14.530;2023-07-29T13:48:46;19.17;97.26
66096;SHT31;53861;53.422;14.530;2023-07-29T13:51:13;19.22;97.19
66096;SHT31;53861;53.422;14.530;2023-07-29T13:53:40;19.30;97.10
66096;SHT31;53861;53.422;14.530;2023-07-29T13:56:08;19.28;97.26
66096;SHT31;53861;53.422;14.530;2023-07-29T13:58:35;19.28;97.36
66096;SHT31;53861;53.422;14.530;2023-07-29T14:01:03;19.37;97.35
66096;SHT31;53861;53.422;14.530;2023-07-29T14:03:29;19.34;97.20
66096;SHT31;53861;53.422;14.530;2023-07-29T14:05:56;19.41;96.89
66096;SHT31;53861;53.422;14.530;2023-07-29T14:08:23;19.33;96.00
66096;SHT31;53861;53.422;14.530;2023-07-29T14:10:50;19.46;97.02
66096;SHT31;53861;53.422;14.530;2023-07-29T14:13:18;19.56;95.75
66096;SHT31;53861;53.422;14.530;2023-07-29T14:15:45;19.77;95.79
66096;SHT31;53861;53.422;14.530;2023-07-29T14:19:45;20.01;96.34
66096;SHT31;53861;53.422;14.530;2023-07-29T14:22:12;20.05;96.14
66096;SHT31;53861;53.422;14.530;2023-07-29T14:24:39;20.19;95.53
66096;SHT31;53861;53.422;14.530;2023-07-29T14:27:06;20.39;95.55
66096;SHT31;53861;53.422;14.530;2023-07-29T14:29:33;20.56;95.91
66096;SHT31;53861;53.422;14.530;2023-07-29T14:32:00;20.43;94.42
66096;SHT31;53861;53.422;14.530;2023-07-29T14:34:27;20.40;94.75
66096;SHT31;53861;53.422;14.530;2023-07-29T14:36:56;20.59;94.77
66096;SHT31;53861;53.422;14.530;2023-07-29T14:39:23;20.70;94.79
66096;SHT31;53861;53.422;14.530;2023-07-29T14:41:50;20.76;93.26
66096;SHT31;53861;53.422;14.530;2023-07-29T14:44:16;20.66;92.45
66096;SHT31;53861;53.422;14.530;2023-07-29T14:46:44;21.11;93.60
66096;SHT31;53861;53.422;14.530;2023-07-29T14:49:11;21.23;90.61
66096;SHT31;53861;53.422;14.530;2023-07-29T14:51:38;21.50;91.52
66096;SHT31;53861;53.422;14.530;2023-07-29T14:54:06;21.59;91.97
66096;SHT31;53861;53.422;14.530;2023-07-29T14:56:33;21.77;90.04
66096;SHT31;53861;53.422;14.530;2023-07-29T14:59:00;21.50;89.76
66096;SHT31;53861;53.422;14.530;2023-07-29T15:01:27;21.58;89.36
66096;SHT31;53861;53.422;14.530;2023-07-29T15:03:54;21.86;89.68
66096;SHT31;53861;53.422;14.530;2023-07-29T15:06:21;22.44;88.79
66096;SHT31;53861;53.422;14.530;2023-07-29T15:08:48;22.64;87.28
66096;SHT31;53861;53.422;14.530;2023-07-29T15:11:16;22.70;87.94
66096;SHT31;53861;53.422;14.530;2023-07-29T15:13:43;22.54;87.11
66096;SHT31;53861;53.422;14.530;2023-07-29T15:16:10;22.23;86.37
66096;SHT31;53861;53.422;14.530;2023-07-29T15:18:37;22.19;86.95
66096;SHT31;53861;53.422;14.530;2023-07-29T15:21:04;22.12;85.57
66096;SHT31;53861;53.422;14.530;2023-07-29T15:23:31;22.13;85.75
66096;SHT31;53861;53.422;14.530;2023-07-29T15:25:58;22.06;86.07